createdAt,value
2018-09-02T14:42:38.781Z,20.10
2018-09-02T14:52:41.099Z,20.00
2018-09-02T15:02:43.135Z,20.30
2018-09-02T15:12:44.495Z,20.20
2018-09-02T15:22:45.892Z,20.40
2018-09-02T15:32:47.242Z,20.20
2018-09-02T15:42:48.660Z,20.10
2018-09-02T15:52:49.922Z,20.10
2018-09-02T16:02:51.220Z,19.50
2018-09-02T16:12:52.477Z,18.60
2018-09-02T16:22:53.718Z,18.20
2018-09-02T16:32:54.982Z,18.10
2018-09-02T16:42:56.665Z,17.90
2018-09-02T16:52:58.782Z,17.40
2018-09-02T17:03:00.043Z,17.30
2018-09-02T17:13:01.324Z,17.20
2018-09-02T17:23:02.604Z,17.10
2018-09-02T17:33:04.815Z,16.80
2018-09-02T17:43:06.082Z,16.80
2018-09-02T17:53:07.342Z,16.70
2018-09-02T18:03:08.593Z,16.70
2018-09-02T18:13:09.847Z,16.70
2018-09-02T18:23:11.094Z,16.70
2018-09-02T18:33:13.116Z,16.70
2018-09-02T18:43:14.562Z,16.70
2018-09-02T18:53:15.832Z,16.80
2018-09-02T19:03:17.158Z,16.80
2018-09-02T19:13:18.666Z,16.70
2018-09-02T19:23:20.011Z,16.60
2018-09-02T19:33:21.326Z,16.60
2018-09-02T19:43:22.712Z,16.60
2018-09-02T19:53:23.981Z,16.60
2018-09-02T20:03:26.036Z,16.60
2018-09-02T20:13:27.269Z,16.60
2018-09-02T20:23:28.518Z,16.50
2018-09-02T20:33:29.822Z,16.60
2018-09-02T20:43:31.089Z,16.60
2018-09-02T20:53:32.385Z,16.60
2018-09-02T21:03:33.652Z,16.50
2018-09-02T21:13:35.818Z,16.30
2018-09-02T21:23:37.105Z,16.30
2018-09-02T21:33:38.383Z,16.10
2018-09-02T21:43:39.625Z,15.90
2018-09-02T21:53:40.866Z,15.90
2018-09-02T22:03:42.310Z,15.80
2018-09-02T22:13:43.565Z,15.70
2018-09-02T22:23:44.834Z,15.60
2018-09-02T22:33:46.110Z,15.40
2018-09-02T22:43:47.378Z,15.40
2018-09-02T22:53:48.778Z,15.40
2018-09-02T23:03:50.077Z,15.40
2018-09-02T23:13:51.344Z,15.50
2018-09-02T23:23:52.646Z,15.60
2018-09-02T23:33:53.888Z,15.70
2018-09-02T23:43:55.134Z,15.80
2018-09-02T23:53:56.390Z,15.80
